Time;durP1;ratioP1;P1;durP2;ratioP2;P2;SDS_P1;SDS_P2;PMS_P1;PMS_P2;Temp;Humidity;BMP_temperature;BMP_pressure;BME280_temperature;BME280_humidity;BME280_pressure;Samples;Min_cycle;Max_cycle;Signal;HPM_P1;HPM_P2
2023/09/27 00:02:26;;;;;;;9.38;5.18;;;;;14.80;99042.00;;;;5054670;28;20521;-65
2023/09/27 00:04:52;;;;;;;6.05;5.10;;;;;14.80;99056.00;;;;5054198;28;20500;-65
2023/09/27 00:07:19;;;;;;;7.72;5.50;;;;;14.70;99051.00;;;;5053469;28;20068;-65
2023/09/27 00:09:46;;;;;;;5.82;4.90;;;;;14.80;99053.00;;;;5054566;28;20044;-65
2023/09/27 00:12:12;;;;;;;5.70;5.05;;;;;14.80;99047.00;;;;5054570;28;20045;-65
2023/09/27 00:14:39;;;;;;;6.10;5.15;;;;;14.80;99039.00;;;;5054001;28;20107;-65
2023/09/27 00:17:06;;;;;;;5.47;4.97;;;;;14.80;99041.00;;;;5054401;28;20137;-67
2023/09/27 00:19:32;;;;;;;5.32;4.78;;;;;14.80;99043.00;;;;5054473;28;20055;-66
2023/09/27 00:21:59;;;;;;;7.15;5.10;;;;;14.70;99048.00;;;;5054306;28;20064;-65
2023/09/27 00:24:26;;;;;;;7.25;5.10;;;;;14.60;99056.00;;;;5053722;28;20600;-66
2023/09/27 00:26:52;;;;;;;6.28;4.55;;;;;14.50;99059.00;;;;5053940;28;20409;-65
2023/09/27 00:29:19;;;;;;;6.45;4.82;;;;;14.40;99051.00;;;;5053346;28;20045;-65
2023/09/27 00:31:46;;;;;;;9.25;4.90;;;;;14.30;99059.00;;;;5053021;28;20048;-65
2023/09/27 00:34:12;;;;;;;4.70;4.30;;;;;14.30;99039.00;;;;5053474;28;20452;-66
2023/09/27 00:36:39;;;;;;;5.22;4.32;;;;;14.30;99032.00;;;;5052869;28;20084;-66
2023/09/27 00:39:06;;;;;;;3.95;3.65;;;;;14.30;99024.00;;;;5054086;28;20060;-66
2023/09/27 00:41:33;;;;;;;5.07;4.10;;;;;14.20;99024.00;;;;5053043;28;20099;-65
2023/09/27 00:44:00;;;;;;;7.13;3.85;;;;;14.20;99011.00;;;;5052302;28;20044;-65
2023/09/27 00:46:27;;;;;;;4.80;3.67;;;;;14.10;99015.00;;;;5052731;28;20037;-65
2023/09/27 00:48:54;;;;;;;4.53;3.65;;;;;14.10;99016.00;;;;5054070;28;20045;-65
2023/09/27 00:51:21;;;;;;;6.75;3.75;;;;;14.00;99023.00;;;;5052606;28;20037;-66
2023/09/27 00:53:49;;;;;;;4.25;3.50;;;;;14.00;99021.00;;;;5053178;28;20044;-66
2023/09/27 00:56:16;;;;;;;3.70;3.38;;;;;14.10;99016.00;;;;5053669;28;20041;-66
2023/09/27 00:58:43;;;;;;;7.05;4.50;;;;;14.10;99012.00;;;;5052358;28;20644;-66
2023/09/27 01:01:12;;;;;;;4.40;4.00;;;;;14.00;99005.00;;;;5052091;28;20092;-66
2023/09/27 01:03:40;;;;;;;4.43;3.80;;;;;14.10;99001.00;;;;5051582;28;20122;-66
2023/09/27 01:06:08;;;;;;;4.63;4.18;;;;;14.10;99006.00;;;;5053409;28;20048;-65
2023/09/27 01:08:35;;;;;;;4.50;4.10;;;;;14.10;99008.00;;;;5053484;28;20210;-66
2023/09/27 01:11:04;;;;;;;4.60;3.58;;;;;14.20;99004.00;;;;5052178;28;20083;-66
2023/09/27 01:13:31;;;;;;;6.70;4.40;;;;;14.20;99003.00;;;;5053056;28;20044;-66
2023/09/27 01:15:58;;;;;;;6.28;4.18;;;;;14.10;98994.00;;;;5051890;28;20044;-66
2023/09/27 01:18:26;;;;;;;4.85;4.13;;;;;14.10;98996.00;;;;5053274;28;20044;-66
2023/09/27 01:20:53;;;;;;;4.50;3.50;;;;;14.10;98999.00;;;;5053515;28;20049;-66
2023/09/27 01:23:20;;;;;;;5.00;4.20;;;;;14.10;98987.00;;;;5053002;28;20069;-66
2023/09/27 01:25:50;;;;;;;5.78;4.45;;;;;14.00;98985.00;;;;5052586;28;20048;-66
2023/09/27 01:28:21;;;;;;;5.30;4.30;;;;;13.90;98977.00;;;;5053131;28;20044;-66
2023/09/27 01:30:47;;;;;;;5.32;4.82;;;;;13.80;98974.00;;;;5051775;28;20075;-65
2023/09/27 01:33:14;;;;;;;5.00;3.88;;;;;13.80;98961.00;;;;5051787;28;20037;-65
2023/09/27 01:35:43;;;;;;;5.57;3.53;;;;;13.80;98955.00;;;;5051299;28;20052;-66
2023/09/27 01:38:11;;;;;;;5.40;4.07;;;;;13.70;98957.00;;;;5051784;28;20069;-65
2023/09/27 01:40:40;;;;;;;5.78;3.40;;;;;13.60;98950.00;;;;5051451;28;20047;-66
2023/09/27 01:43:07;;;;;;;5.05;3.80;;;;;13.40;98942.00;;;;5051389;28;20387;-66
2023/09/27 01:45:34;;;;;;;4.07;3.75;;;;;13.30;98954.00;;;;5051059;28;20083;-66
2023/09/27 01:48:01;;;;;;;4.10;3.58;;;;;13.40;98957.00;;;;5052938;28;20044;-66
2023/09/27 01:50:29;;;;;;;7.95;3.95;;;;;13.50;98959.00;;;;5052996;28;20124;-65
2023/09/27 01:52:57;;;;;;;5.53;3.67;;;;;13.60;98961.00;;;;5052596;28;20560;-66
2023/09/27 01:55:24;;;;;;;5.10;4.13;;;;;13.60;98969.00;;;;5051937;28;20513;-66
2023/09/27 01:57:52;;;;;;;8.93;4.10;;;;;13.60;98966.00;;;;5052529;28;20041;-66
2023/09/27 02:00:20;;;;;;;6.40;3.83;;;;;13.60;98968.00;;;;5050990;28;20410;-66
2023/09/27 02:02:55;;;;;;;7.53;4.13;;;;;13.60;98961.00;;;;5051146;28;20139;-66
2023/09/27 02:05:23;;;;;;;12.57;5.18;;;;;13.70;98969.00;;;;5051781;28;20454;-66
2023/09/27 02:07:50;;;;;;;6.85;4.82;;;;;13.80;98969.00;;;;5052341;28;20041;-66
2023/09/27 02:10:16;;;;;;;8.60;4.47;;;;;13.80;98971.00;;;;5052338;28;20041;-66
2023/09/27 02:12:43;;;;;;;6.07;4.38;;;;;13.80;98985.00;;;;5052286;28;20577;-66
2023/09/27 02:15:14;;;;;;;5.88;3.90;;;;;13.70;98997.00;;;;5050441;28;20102;-66
2023/09/27 02:17:42;;;;;;;4.97;3.90;;;;;13.70;99004.00;;;;5051165;28;20389;-65
2023/09/27 02:20:10;;;;;;;4.68;3.67;;;;;13.80;99008.00;;;;5052327;28;20045;-66
2023/09/27 02:22:38;;;;;;;4.50;3.90;;;;;13.80;99008.00;;;;5052177;28;20090;-65
2023/09/27 02:25:11;;;;;;;6.40;4.20;;;;;13.70;99008.00;;;;5050401;28;20052;-66
2023/09/27 02:27:38;;;;;;;4.30;3.90;;;;;13.60;99007.00;;;;5052350;28;20045;-66
2023/09/27 02:30:10;;;;;;;5.55;4.10;;;;;13.70;99010.00;;;;5052466;28;20444;-65
2023/09/27 02:32:40;;;;;;;5.60;4.47;;;;;13.70;99009.00;;;;5034431;28;20102;-65
2023/09/27 02:35:09;;;;;;;6.30;4.47;;;;;13.60;99026.00;;;;5050183;28;20541;-65
2023/09/27 02:37:38;;;;;;;9.70;4.20;;;;;13.40;99033.00;;;;5052119;28;20053;-65
2023/09/27 02:40:14;;;;;;;5.65;4.47;;;;;13.20;99036.00;;;;5034311;28;20094;-65
2023/09/27 02:42:42;;;;;;;4.95;3.97;;;;;13.10;99040.00;;;;5052090;28;20049;-66
2023/09/27 02:45:11;;;;;;;6.93;4.28;;;;;13.00;99031.00;;;;5049963;28;20132;-64
2023/09/27 02:47:39;;;;;;;5.32;4.00;;;;;13.00;99033.00;;;;5050613;28;20049;-64
2023/09/27 02:50:10;;;;;;;6.53;4.50;;;;;13.10;99038.00;;;;5051804;28;20049;-65
2023/09/27 02:52:38;;;;;;;7.28;4.40;;;;;13.10;99027.00;;;;5055171;28;20072;-65
2023/09/27 02:55:08;;;;;;;4.70;4.15;;;;;13.20;99029.00;;;;5054090;28;20501;-64
2023/09/27 02:57:36;;;;;;;5.45;4.05;;;;;13.20;99038.00;;;;5054718;28;20102;-65
2023/09/27 03:00:06;;;;;;;5.38;4.28;;;;;13.20;99039.00;;;;5055869;28;20041;-64
2023/09/27 03:02:33;;;;;;;4.55;3.70;;;;;13.20;99054.00;;;;5054652;28;20037;-64
2023/09/27 03:05:00;;;;;;;5.03;4.32;;;;;13.10;99058.00;;;;5055113;28;20037;-64
2023/09/27 03:07:27;;;;;;;4.80;4.32;;;;;13.20;99050.00;;;;5054322;28;20140;-64
2023/09/27 03:09:53;;;;;;;7.35;5.40;;;;;13.20;99055.00;;;;5054403;28;20068;-64
2023/09/27 03:12:20;;;;;;;4.95;4.00;;;;;13.20;99050.00;;;;5055775;28;20041;-64
2023/09/27 03:14:46;;;;;;;5.75;4.15;;;;;13.20;99051.00;;;;5053771;28;20127;-64
2023/09/27 03:17:13;;;;;;;5.35;4.30;;;;;13.10;99048.00;;;;5054418;28;20551;-64
2023/09/27 03:19:40;;;;;;;4.35;3.90;;;;;13.10;99055.00;;;;5054213;28;20144;-64
2023/09/27 03:22:09;;;;;;;4.70;4.30;;;;;13.10;99051.00;;;;5054216;28;20406;-64
2023/09/27 03:24:35;;;;;;;4.28;3.85;;;;;13.10;99044.00;;;;5053521;28;20049;-64
2023/09/27 03:27:04;;;;;;;9.52;5.25;;;;;13.00;99048.00;;;;5054029;28;20049;-64
2023/09/27 03:29:32;;;;;;;8.15;4.50;;;;;12.90;99052.00;;;;5055378;28;20077;-66
2023/09/27 03:31:59;;;;;;;6.57;4.28;;;;;12.90;99044.00;;;;5054198;28;20417;-67
2023/09/27 03:34:26;;;;;;;4.85;4.35;;;;;12.80;99041.00;;;;5053393;28;20073;-64
2023/09/27 03:36:56;;;;;;;5.65;4.32;;;;;12.70;99031.00;;;;5037634;28;20433;-63
2023/09/27 03:39:23;;;;;;;5.22;4.43;;;;;12.60;99033.00;;;;5054148;28;20145;-64
2023/09/27 03:41:50;;;;;;;8.60;5.18;;;;;12.60;99025.00;;;;5055082;28;20141;-64
2023/09/27 03:44:18;;;;;;;5.43;4.38;;;;;12.60;99019.00;;;;5053214;28;20074;-65
2023/09/27 03:46:44;;;;;;;4.88;4.32;;;;;12.60;99008.00;;;;5054980;28;20131;-65
2023/09/27 03:49:12;;;;;;;4.95;4.20;;;;;12.60;99007.00;;;;5053794;28;20041;-64
2023/09/27 03:51:39;;;;;;;4.95;4.45;;;;;12.60;99005.00;;;;5053668;28;20444;-64
2023/09/27 03:54:06;;;;;;;5.15;4.32;;;;;12.50;99003.00;;;;5054246;28;20126;-64
2023/09/27 03:56:33;;;;;;;4.60;3.90;;;;;12.40;99010.00;;;;5053530;28;20050;-65
2023/09/27 03:58:59;;;;;;;4.93;4.10;;;;;12.30;99018.00;;;;5053404;28;20067;-64
2023/09/27 04:01:26;;;;;;;4.43;4.00;;;;;12.20;99026.00;;;;5054676;28;20059;-64
2023/09/27 04:03:52;;;;;;;4.90;4.28;;;;;12.20;99030.00;;;;5035907;28;20045;-64
2023/09/27 04:06:20;;;;;;;7.35;4.72;;;;;12.20;99025.00;;;;5053388;28;20053;-64
2023/09/27 04:08:46;;;;;;;6.43;4.03;;;;;12.10;99032.00;;;;5036907;28;20049;-64
2023/09/27 04:11:13;;;;;;;29.92;20.27;;;;;12.10;99030.00;;;;5053478;28;20053;-64
2023/09/27 04:13:40;;;;;;;7.10;6.15;;;;;12.20;99030.00;;;;5054055;28;20036;-64
2023/09/27 04:16:06;;;;;;;7.68;4.85;;;;;12.20;99024.00;;;;5054047;28;20045;-64
2023/09/27 04:18:33;;;;;;;4.55;4.03;;;;;12.20;99017.00;;;;5053256;28;20439;-64
2023/09/27 04:21:07;;;;;;;6.15;4.88;;;;;12.10;99009.00;;;;5055136;28;20132;-64
2023/09/27 04:23:36;;;;;;;5.15;4.07;;;;;12.10;99018.00;;;;5054594;28;20041;-64
2023/09/27 04:26:05;;;;;;;4.70;4.13;;;;;12.10;99024.00;;;;5055642;28;20045;-65
2023/09/27 04:28:33;;;;;;;5.32;4.82;;;;;12.20;99024.00;;;;5055805;28;20037;-64
2023/09/27 04:31:00;;;;;;;6.90;4.72;;;;;12.30;99022.00;;;;5055278;28;20049;-65
2023/09/27 04:33:27;;;;;;;4.57;3.90;;;;;12.30;99022.00;;;;5054315;28;20032;-65
2023/09/27 04:35:53;;;;;;;4.60;4.20;;;;;12.30;99024.00;;;;5054422;28;20123;-65
2023/09/27 04:38:21;;;;;;;8.63;4.10;;;;;12.20;99024.00;;;;5054788;28;20123;-66
2023/09/27 04:40:47;;;;;;;8.82;5.13;;;;;12.30;99015.00;;;;5053453;28;20055;-66
2023/09/27 04:43:14;;;;;;;14.88;5.22;;;;;12.20;99008.00;;;;5054022;28;20103;-65
2023/09/27 04:45:41;;;;;;;6.65;4.30;;;;;12.30;99019.00;;;;5053447;28;20098;-65
2023/09/27 04:48:08;;;;;;;6.50;4.10;;;;;12.30;99020.00;;;;5053992;28;20049;-65
2023/09/27 04:50:35;;;;;;;4.95;4.45;;;;;12.40;99035.00;;;;5053846;28;20057;-65
2023/09/27 04:53:02;;;;;;;4.95;4.50;;;;;12.40;99041.00;;;;5053866;28;20041;-65
2023/09/27 04:55:28;;;;;;;5.72;3.80;;;;;12.30;99048.00;;;;5051922;28;20049;-65
2023/09/27 04:57:55;;;;;;;5.05;4.30;;;;;12.30;99032.00;;;;5053807;28;20061;-66
2023/09/27 05:00:22;;;;;;;7.55;4.63;;;;;12.30;99040.00;;;;5053558;28;20056;-65
2023/09/27 05:02:51;;;;;;;5.20;4.28;;;;;12.20;99036.00;;;;5052253;28;20055;-66
2023/09/27 05:05:18;;;;;;;4.72;4.13;;;;;12.30;99038.00;;;;5051667;28;20441;-65
2023/09/27 05:07:45;;;;;;;6.72;4.72;;;;;12.30;99035.00;;;;5053579;28;20045;-65
2023/09/27 05:10:12;;;;;;;6.18;4.32;;;;;12.30;99031.00;;;;5053585;28;20083;-66
2023/09/27 05:12:39;;;;;;;18.65;11.00;;;;;12.20;99036.00;;;;5052197;28;20079;-66
2023/09/27 05:15:07;;;;;;;8.30;5.68;;;;;12.00;99022.00;;;;5051974;28;20048;-65
2023/09/27 05:17:35;;;;;;;8.88;4.68;;;;;12.00;99029.00;;;;5053167;28;20048;-65
2023/09/27 05:20:10;;;;;;;7.30;5.30;;;;;11.80;99024.00;;;;5052251;28;20075;-65
2023/09/27 05:22:38;;;;;;;7.65;6.13;;;;;11.80;99029.00;;;;5053165;28;20041;-65
2023/09/27 05:25:06;;;;;;;5.45;4.85;;;;;11.80;99034.00;;;;5052547;28;20047;-65
2023/09/27 05:27:34;;;;;;;14.52;5.20;;;;;11.90;99029.00;;;;5051991;28;20120;-65
2023/09/27 05:30:00;;;;;;;8.32;4.95;;;;;12.00;99034.00;;;;5053112;28;20049;-65
2023/09/27 05:32:27;;;;;;;9.57;6.40;;;;;11.90;99027.00;;;;5052902;28;20107;-66
2023/09/27 05:34:54;;;;;;;8.18;7.10;;;;;11.90;99022.00;;;;5052596;28;20041;-65
2023/09/27 05:37:21;;;;;;;5.15;4.63;;;;;11.90;99025.00;;;;5052978;28;20123;-65
2023/09/27 05:39:47;;;;;;;8.35;4.63;;;;;12.00;99028.00;;;;5053009;28;20069;-66
2023/09/27 05:42:14;;;;;;;4.45;4.05;;;;;12.10;99018.00;;;;5052765;28;20051;-66
2023/09/27 05:44:40;;;;;;;5.53;4.88;;;;;12.20;99027.00;;;;5052157;28;20374;-65
2023/09/27 05:47:07;;;;;;;7.07;4.60;;;;;12.20;99024.00;;;;5052750;28;20051;-65
2023/09/27 05:49:34;;;;;;;5.28;4.60;;;;;12.10;99025.00;;;;5052763;28;20045;-65
2023/09/27 05:52:02;;;;;;;5.80;4.55;;;;;12.10;99027.00;;;;5052772;28;20148;-65
2023/09/27 05:54:29;;;;;;;6.03;4.65;;;;;12.20;99025.00;;;;5051971;28;20037;-65
2023/09/27 05:56:55;;;;;;;6.93;4.65;;;;;12.30;99028.00;;;;5052629;28;20048;-65
2023/09/27 05:59:24;;;;;;;9.20;4.88;;;;;12.30;99023.00;;;;5052526;28;20051;-65
2023/09/27 06:01:51;;;;;;;7.70;5.40;;;;;12.30;99036.00;;;;5052556;28;20095;-65
2023/09/27 06:04:19;;;;;;;11.63;5.20;;;;;12.40;99043.00;;;;5051902;28;20041;-66
2023/09/27 06:06:46;;;;;;;9.90;5.07;;;;;12.50;99049.00;;;;5052477;28;20068;-65
2023/09/27 06:09:12;;;;;;;7.45;4.70;;;;;12.60;99040.00;;;;5052484;28;20055;-66
2023/09/27 06:11:39;;;;;;;6.82;4.30;;;;;12.50;99034.00;;;;5052520;28;20120;-65
2023/09/27 06:14:10;;;;;;;7.50;4.75;;;;;12.50;99038.00;;;;5051789;28;20107;-65
2023/09/27 06:16:39;;;;;;;7.45;5.18;;;;;12.40;99038.00;;;;5052107;28;20520;-65
2023/09/27 06:19:06;;;;;;;5.88;4.57;;;;;12.40;99040.00;;;;5052284;28;20045;-66
2023/09/27 06:21:32;;;;;;;5.70;3.92;;;;;12.40;99031.00;;;;5052243;28;20106;-65
2023/09/27 06:23:59;;;;;;;5.57;4.55;;;;;12.40;99038.00;;;;5051530;28;20551;-65
2023/09/27 06:26:26;;;;;;;8.77;4.90;;;;;12.40;99027.00;;;;5052121;28;20416;-66
2023/09/27 06:28:54;;;;;;;7.65;4.90;;;;;12.50;99028.00;;;;5052147;28;20062;-65
2023/09/27 06:31:21;;;;;;;7.38;4.50;;;;;12.60;99031.00;;;;5050950;28;20049;-66
2023/09/27 06:33:49;;;;;;;9.40;4.93;;;;;12.70;99026.00;;;;5051526;28;20397;-65
2023/09/27 06:36:16;;;;;;;7.72;4.93;;;;;12.70;99018.00;;;;5051932;28;20051;-65
2023/09/27 06:38:42;;;;;;;6.65;5.25;;;;;12.70;99013.00;;;;5052125;28;20410;-65
2023/09/27 06:41:10;;;;;;;5.72;4.72;;;;;12.60;99011.00;;;;5052097;28;20049;-65
2023/09/27 06:43:37;;;;;;;9.25;6.20;;;;;12.60;98997.00;;;;5051591;28;20472;-65
2023/09/27 06:46:10;;;;;;;6.68;5.15;;;;;12.70;98995.00;;;;5052261;28;20441;-65
2023/09/27 06:48:37;;;;;;;5.90;4.70;;;;;12.70;98994.00;;;;5051966;28;20053;-65
2023/09/27 06:51:05;;;;;;;5.65;4.57;;;;;12.70;98992.00;;;;5051953;28;20617;-65
2023/09/27 06:53:32;;;;;;;5.15;4.57;;;;;12.80;98980.00;;;;5051286;28;20045;-66
2023/09/27 06:55:59;;;;;;;5.32;4.57;;;;;12.80;98980.00;;;;5050494;28;20059;-65
2023/09/27 06:58:26;;;;;;;9.25;5.32;;;;;12.90;98988.00;;;;5051891;28;20049;-66
2023/09/27 07:00:54;;;;;;;4.72;4.22;;;;;13.00;98998.00;;;;5051695;28;20095;-66
2023/09/27 07:03:24;;;;;;;6.47;4.70;;;;;13.20;98996.00;;;;5051705;28;20037;-65
2023/09/27 07:05:52;;;;;;;6.20;4.25;;;;;13.30;98995.00;;;;5051779;28;20049;-66
2023/09/27 07:08:20;;;;;;;5.82;4.43;;;;;13.50;99007.00;;;;5052033;28;20502;-66
2023/09/27 07:10:47;;;;;;;9.95;4.75;;;;;13.60;99002.00;;;;5051815;28;20120;-66
2023/09/27 07:13:14;;;;;;;13.57;6.72;;;;;13.60;99006.00;;;;5051847;28;20055;-65
2023/09/27 07:15:45;;;;;;;7.80;4.72;;;;;13.80;99005.00;;;;5051520;28;20460;-67
2023/09/27 07:18:12;;;;;;;101.30;24.33;;;;;13.90;99014.00;;;;5052310;28;20048;-66
2023/09/27 07:20:42;;;;;;;11.73;6.30;;;;;14.00;99010.00;;;;5051948;28;20124;-66
2023/09/27 07:23:14;;;;;;;6.78;4.45;;;;;14.10;99011.00;;;;5052408;28;20041;-66
2023/09/27 07:25:44;;;;;;;6.35;4.05;;;;;14.30;99018.00;;;;5050054;28;20445;-66
2023/09/27 07:28:11;;;;;;;6.82;4.25;;;;;14.50;99028.00;;;;5052008;28;20086;-67
2023/09/27 07:30:38;;;;;;;4.97;4.47;;;;;14.70;99029.00;;;;5051816;28;20048;-66
2023/09/27 07:33:11;;;;;;;7.10;5.35;;;;;14.80;99030.00;;;;5050136;28;20140;-66
2023/09/27 07:35:43;;;;;;;4.93;4.53;;;;;14.90;99033.00;;;;5050977;28;20045;-67
2023/09/27 07:38:10;;;;;;;11.82;8.30;;;;;15.00;99031.00;;;;5052664;28;20048;-66
2023/09/27 07:40:38;;;;;;;5.30;4.80;;;;;15.20;99033.00;;;;5053922;28;20041;-66
2023/09/27 07:43:05;;;;;;;6.43;5.10;;;;;15.30;99032.00;;;;5055276;28;20075;-67
2023/09/27 07:45:35;;;;;;;7.47;5.22;;;;;15.50;99026.00;;;;5054425;28;20055;-66
2023/09/27 07:48:02;;;;;;;7.95;4.72;;;;;15.60;99025.00;;;;5053850;28;20047;-66
2023/09/27 07:50:31;;;;;;;9.80;5.85;;;;;15.70;99019.00;;;;5055178;28;20049;-66
2023/09/27 07:53:00;;;;;;;6.57;5.32;;;;;15.80;99020.00;;;;5053730;28;20085;-66
2023/09/27 07:55:27;;;;;;;6.35;5.10;;;;;16.00;99030.00;;;;5054394;28;20045;-67
2023/09/27 07:57:54;;;;;;;5.53;4.47;;;;;16.10;99025.00;;;;5055318;28;20127;-66
2023/09/27 08:00:27;;;;;;;8.40;4.72;;;;;16.20;99031.00;;;;5055038;28;20484;-66
2023/09/27 08:02:57;;;;;;;7.60;5.38;;;;;16.40;99027.00;;;;5055647;28;20079;-67
2023/09/27 08:05:24;;;;;;;7.78;5.28;;;;;16.50;99029.00;;;;5054900;28;20123;-67
2023/09/27 08:07:51;;;;;;;5.00;4.50;;;;;16.70;99035.00;;;;5055351;28;20123;-67
2023/09/27 08:10:18;;;;;;;6.88;5.20;;;;;16.80;99032.00;;;;5055365;28;20045;-67
2023/09/27 08:12:48;;;;;;;5.50;4.70;;;;;17.00;99038.00;;;;5053427;28;20052;-66
2023/09/27 08:15:14;;;;;;;7.00;5.35;;;;;17.10;99037.00;;;;5053981;28;20048;-67
2023/09/27 08:17:42;;;;;;;5.80;4.85;;;;;17.20;99035.00;;;;5053515;28;20041;-66
2023/09/27 08:20:11;;;;;;;7.97;5.05;;;;;17.30;99035.00;;;;5054746;28;20452;-67
2023/09/27 08:22:39;;;;;;;6.60;5.03;;;;;17.30;99031.00;;;;5053698;28;20514;-66
2023/09/27 08:25:09;;;;;;;5.50;4.78;;;;;17.40;99026.00;;;;5054400;28;20064;-67
2023/09/27 08:27:36;;;;;;;6.35;4.63;;;;;17.50;99031.00;;;;5054944;28;20110;-67
2023/09/27 08:30:05;;;;;;;5.60;5.07;;;;;17.60;99036.00;;;;5053546;28;20116;-67
2023/09/27 08:32:33;;;;;;;8.63;4.65;;;;;17.70;99026.00;;;;5053522;28;20049;-67
2023/09/27 08:35:04;;;;;;;5.95;4.72;;;;;17.80;99027.00;;;;5054253;28;20055;-65
2023/09/27 08:37:31;;;;;;;5.63;4.68;;;;;17.90;99024.00;;;;5054969;28;20045;-67
2023/09/27 08:39:58;;;;;;;5.53;5.03;;;;;18.10;99025.00;;;;5053579;28;20068;-67
2023/09/27 08:42:25;;;;;;;5.22;4.43;;;;;18.30;99026.00;;;;5054887;28;20048;-67
2023/09/27 08:44:52;;;;;;;6.35;4.47;;;;;18.40;99028.00;;;;5052821;28;20037;-67
2023/09/27 08:47:20;;;;;;;5.03;4.53;;;;;18.60;99028.00;;;;5054668;28;20508;-67
2023/09/27 08:49:49;;;;;;;7.93;5.18;;;;;18.70;99017.00;;;;5053585;28;20045;-66
2023/09/27 08:52:17;;;;;;;9.15;5.38;;;;;18.80;99017.00;;;;5055123;28;20045;-65
2023/09/27 08:54:43;;;;;;;8.48;5.68;;;;;18.90;99013.00;;;;5054863;28;20041;-65
2023/09/27 08:57:11;;;;;;;8.02;5.55;;;;;19.10;99009.00;;;;5055873;28;20037;-65
2023/09/27 08:59:39;;;;;;;9.45;4.68;;;;;19.30;99004.00;;;;5055160;28;20103;-65
2023/09/27 09:02:06;;;;;;;5.63;4.50;;;;;19.50;99012.00;;;;5055890;28;20055;-65
2023/09/27 09:04:33;;;;;;;5.93;4.93;;;;;19.70;99007.00;;;;5055646;28;20127;-67
2023/09/27 09:07:01;;;;;;;7.90;4.78;;;;;19.80;99008.00;;;;5055977;28;20162;-67
2023/09/27 09:09:30;;;;;;;6.60;4.40;;;;;20.00;99002.00;;;;5058067;28;20442;-67
2023/09/27 09:12:00;;;;;;;10.90;4.78;;;;;20.10;99001.00;;;;5058292;28;20052;-65
2023/09/27 09:14:39;;;;;;;8.65;4.15;;;;;20.20;98995.00;;;;5059191;28;20045;-66
2023/09/27 09:17:07;;;;;;;5.15;4.07;;;;;20.30;98993.00;;;;5055660;28;20049;-67
2023/09/27 09:19:38;;;;;;;9.65;5.18;;;;;20.50;98997.00;;;;5056791;28;20112;-66
2023/09/27 09:22:12;;;;;;;15.55;5.53;;;;;20.80;98993.00;;;;5053479;28;20078;-65
2023/09/27 09:24:42;;;;;;;9.55;4.65;;;;;21.10;98997.00;;;;5052865;28;20045;-65
2023/09/27 09:27:15;;;;;;;7.47;4.28;;;;;21.20;98995.00;;;;5054745;28;20040;-65
2023/09/27 09:29:46;;;;;;;7.80;4.50;;;;;21.40;99003.00;;;;5036956;28;20045;-65
2023/09/27 09:32:20;;;;;;;7.32;4.03;;;;;21.60;99002.00;;;;5053879;28;20049;-65
2023/09/27 09:34:49;;;;;;;4.80;3.75;;;;;21.70;98999.00;;;;5052034;28;20052;-66
2023/09/27 09:37:16;;;;;;;5.10;3.60;;;;;21.90;98991.00;;;;5053863;28;20072;-65
2023/09/27 09:39:44;;;;;;;5.78;3.38;;;;;22.00;99000.00;;;;5053905;28;20052;-66
2023/09/27 09:42:11;;;;;;;4.65;3.80;;;;;22.10;98998.00;;;;5053442;28;20045;-65
2023/09/27 09:44:37;;;;;;;4.22;3.28;;;;;22.30;98995.00;;;;5052192;28;20045;-65
2023/09/27 09:47:12;;;;;;;4.28;3.88;;;;;22.40;98990.00;;;;5053856;28;20056;-65
2023/09/27 09:49:39;;;;;;;3.45;3.15;;;;;22.50;98998.00;;;;5053674;28;20045;-65
2023/09/27 09:52:06;;;;;;;3.33;2.88;;;;;22.50;98996.00;;;;5053494;28;20052;-66
2023/09/27 09:54:37;;;;;;;3.83;2.83;;;;;22.70;98994.00;;;;5052702;28;20041;-67
2023/09/27 09:57:08;;;;;;;3.58;2.90;;;;;22.90;98982.00;;;;5035113;28;20083;-67
2023/09/27 10:00:12;;;;;;;3.42;3.03;;;;;23.10;98994.00;;;;5052583;28;20047;-66
2023/09/27 10:02:58;;;;;;;5.00;3.40;;;;;23.30;98989.00;;;;5051741;28;20053;-66
2023/09/27 10:05:28;;;;;;;5.13;3.17;;;;;23.50;98996.00;;;;5050761;28;20051;-66
2023/09/27 10:07:55;;;;;;;4.22;3.28;;;;;23.60;98992.00;;;;5052683;28;20107;-65
2023/09/27 10:10:22;;;;;;;4.50;3.63;;;;;23.70;98994.00;;;;5052420;28;20129;-67
2023/09/27 10:12:52;;;;;;;5.45;3.58;;;;;23.80;99000.00;;;;5051107;28;20049;-65
2023/09/27 10:15:21;;;;;;;3.25;2.95;;;;;23.90;99003.00;;;;5051941;28;20069;-65
2023/09/27 10:17:47;;;;;;;3.20;2.90;;;;;23.80;99008.00;;;;5052379;28;20049;-64
2023/09/27 10:20:18;;;;;;;4.57;3.35;;;;;23.80;98997.00;;;;5051292;28;20045;-66
2023/09/27 10:22:46;;;;;;;4.35;3.20;;;;;23.90;98989.00;;;;5051218;28;20051;-65
2023/09/27 10:25:27;;;;;;;3.33;3.03;;;;;23.80;98991.00;;;;5050322;28;20136;-66
2023/09/27 10:28:06;;;;;;;5.22;3.30;;;;;23.80;98984.00;;;;5050957;28;20040;-67
2023/09/27 10:30:44;;;;;;;4.78;2.95;;;;;23.70;98985.00;;;;5052218;28;20124;-66
2023/09/27 10:33:22;;;;;;;7.95;3.30;;;;;23.70;98988.00;;;;5052077;28;20059;-66
2023/09/27 10:36:01;;;;;;;5.90;3.38;;;;;23.70;98987.00;;;;5050249;28;20496;-66
2023/09/27 10:38:57;;;;;;;3.90;3.58;;;;;23.60;98981.00;;;;5052124;28;20045;-66
2023/09/27 10:41:33;;;;;;;4.82;4.20;;;;;23.60;98982.00;;;;5046745;28;20236;-66
2023/09/27 10:44:02;;;;;;;5.15;3.50;;;;;23.50;98976.00;;;;5051203;28;20040;-66
2023/09/27 10:46:41;;;;;;;5.93;3.90;;;;;23.60;98968.00;;;;5051837;28;20052;-66
2023/09/27 10:49:09;;;;;;;5.15;3.58;;;;;23.40;98974.00;;;;5051977;28;20044;-66
2023/09/27 10:51:35;;;;;;;4.07;3.67;;;;;23.40;98972.00;;;;5050766;28;20493;-66
2023/09/27 10:54:08;;;;;;;4.18;3.10;;;;;23.40;98970.00;;;;5050352;28;20102;-66
2023/09/27 10:56:35;;;;;;;3.78;3.47;;;;;23.40;98968.00;;;;5051798;28;20482;-67
2023/09/27 10:59:04;;;;;;;4.78;3.45;;;;;23.40;98966.00;;;;5052054;28;20563;-65
2023/09/27 11:01:31;;;;;;;6.47;4.35;;;;;23.50;98967.00;;;;5050382;28;20520;-65
2023/09/27 11:04:02;;;;;;;3.97;3.67;;;;;23.50;98957.00;;;;5049912;28;20068;-66
2023/09/27 11:06:33;;;;;;;4.32;3.92;;;;;23.60;98950.00;;;;5051726;28;20682;-65
2023/09/27 11:09:07;;;;;;;4.93;3.70;;;;;23.70;98959.00;;;;5051713;28;20520;-66
2023/09/27 11:11:34;;;;;;;3.58;3.28;;;;;23.80;98951.00;;;;5050641;28;20116;-66
2023/09/27 11:14:01;;;;;;;8.10;3.92;;;;;23.90;98942.00;;;;5053732;28;20401;-67
2023/09/27 11:16:29;;;;;;;3.00;2.78;;;;;24.00;98942.00;;;;5055459;28;20555;-66
2023/09/27 11:18:58;;;;;;;3.83;3.00;;;;;24.10;98945.00;;;;5038067;28;20521;-67
2023/09/27 11:21:26;;;;;;;5.18;3.70;;;;;24.20;98937.00;;;;5054531;28;20049;-66
2023/09/27 11:24:01;;;;;;;5.80;4.32;;;;;24.30;98926.00;;;;5055121;28;20120;-66
2023/09/27 11:26:29;;;;;;;8.57;4.78;;;;;24.40;98918.00;;;;5055636;28;20690;-66
2023/09/27 11:29:01;;;;;;;3.50;2.80;;;;;24.50;98911.00;;;;5037706;28;20110;-65
2023/09/27 11:31:32;;;;;;;9.88;5.72;;;;;24.60;98900.00;;;;5055389;28;20076;-65
2023/09/27 11:34:13;;;;;;;4.40;3.40;;;;;24.80;98898.00;;;;5054648;28;20052;-66
2023/09/27 11:36:41;;;;;;;5.55;4.63;;;;;24.80;98899.00;;;;5055202;28;20119;-65
2023/09/27 11:39:08;;;;;;;3.47;3.17;;;;;24.90;98894.00;;;;5055251;28;20064;-66
2023/09/27 11:41:35;;;;;;;5.05;2.95;;;;;25.00;98891.00;;;;5054030;28;20124;-65
2023/09/27 11:44:21;;;;;;;3.50;2.50;;;;;25.00;98889.00;;;;5054544;28;20128;-66
2023/09/27 11:46:49;;;;;;;2.63;2.40;;;;;25.00;98888.00;;;;5057008;28;20178;-66
2023/09/27 11:49:17;;;;;;;2.90;2.33;;;;;25.00;98885.00;;;;5069389;28;20076;-65
2023/09/27 11:51:44;;;;;;;3.67;3.25;;;;;25.10;98875.00;;;;5074691;28;20088;-66
2023/09/27 11:54:12;;;;;;;5.15;2.50;;;;;25.10;98874.00;;;;5076363;28;20517;-65
2023/09/27 11:56:40;;;;;;;3.10;2.40;;;;;25.20;98869.00;;;;5073061;28;20056;-65
2023/09/27 11:59:07;;;;;;;2.58;2.38;;;;;25.20;98861.00;;;;5072624;28;20053;-65
2023/09/27 12:01:35;;;;;;;3.80;2.45;;;;;25.20;98859.00;;;;5069669;28;20045;-66
2023/09/27 12:04:01;;;;;;;6.03;2.70;;;;;25.20;98854.00;;;;5067360;28;20504;-66
2023/09/27 12:06:32;;;;;;;2.60;2.40;;;;;25.20;98849.00;;;;5067514;28;20045;-65
2023/09/27 12:08:59;;;;;;;2.92;2.67;;;;;25.20;98849.00;;;;5069229;28;20059;-65
2023/09/27 12:11:28;;;;;;;3.45;2.35;;;;;25.30;98844.00;;;;5067461;28;20126;-65
2023/09/27 12:13:54;;;;;;;2.78;2.45;;;;;25.40;98836.00;;;;5052141;28;20485;-65
2023/09/27 12:16:21;;;;;;;3.63;2.17;;;;;25.50;98844.00;;;;5072809;28;20470;-65
2023/09/27 12:18:48;;;;;;;5.07;2.45;;;;;25.60;98837.00;;;;5057866;28;20107;-65
2023/09/27 12:21:15;;;;;;;5.43;3.72;;;;;25.70;98828.00;;;;5063521;28;20470;-65
2023/09/27 12:23:44;;;;;;;2.35;2.15;;;;;25.90;98834.00;;;;5059163;28;20056;-65